sensor_id;sensor_type;location;lat;lon;timestamp;pressure;altitude;pressure_sealevel;temperature;humidity
6128;BME280;7073;42.672;23.256;2022-10-19T00:01:04;94978.94;;;6.21;92.19
6128;BME280;7073;42.672;23.256;2022-10-19T00:03:33;94994.59;;;6.20;92.17
6128;BME280;7073;42.672;23.256;2022-10-19T00:06:09;94994.31;;;6.14;91.64
6128;BME280;7073;42.672;23.256;2022-10-19T00:08:36;94985.25;;;6.19;92.04
6128;BME280;7073;42.672;23.256;2022-10-19T00:11:03;94988.34;;;6.37;91.11
6128;BME280;7073;42.672;23.256;2022-10-19T00:13:30;94990.06;;;6.44;90.22
6128;BME280;7073;42.672;23.256;2022-10-19T00:15:57;94991.53;;;6.61;89.65
6128;BME280;7073;42.672;23.256;2022-10-19T00:18:25;94986.28;;;6.69;88.45
6128;BME280;7073;42.672;23.256;2022-10-19T00:20:52;94965.28;;;6.50;89.67
6128;BME280;7073;42.672;23.256;2022-10-19T00:23:27;94972.91;;;6.43;89.78
6128;BME280;7073;42.672;23.256;2022-10-19T00:25:56;94960.31;;;6.03;90.07
6128;BME280;7073;42.672;23.256;2022-10-19T00:28:25;94964.56;;;6.19;91.00
6128;BME280;7073;42.672;23.256;2022-10-19T00:30:53;94968.50;;;6.06;91.65
6128;BME280;7073;42.672;23.256;2022-10-19T00:33:27;94951.72;;;6.25;90.11
6128;BME280;7073;42.672;23.256;2022-10-19T00:35:54;94945.66;;;6.33;89.58
6128;BME280;7073;42.672;23.256;2022-10-19T00:38:21;94946.22;;;6.28;90.91
6128;BME280;7073;42.672;23.256;2022-10-19T00:40:48;94941.63;;;6.15;91.18
6128;BME280;7073;42.672;23.256;2022-10-19T00:43:17;94939.47;;;6.19;91.76
6128;BME280;7073;42.672;23.256;2022-10-19T00:45:45;94923.53;;;6.15;91.29
6128;BME280;7073;42.672;23.256;2022-10-19T00:48:15;94938.88;;;5.94;92.24
6128;BME280;7073;42.672;23.256;2022-10-19T00:50:45;94922.88;;;5.91;93.01
6128;BME280;7073;42.672;23.256;2022-10-19T00:53:12;94923.88;;;5.90;92.78
6128;BME280;7073;42.672;23.256;2022-10-19T00:55:40;94927.28;;;5.82;93.00
6128;BME280;7073;42.672;23.256;2022-10-19T00:58:09;94928.66;;;5.70;92.93
6128;BME280;7073;42.672;23.256;2022-10-19T01:00:36;94918.06;;;5.80;93.00
6128;BME280;7073;42.672;23.256;2022-10-19T01:03:04;94921.28;;;5.90;91.93
6128;BME280;7073;42.672;23.256;2022-10-19T01:08:34;94915.91;;;5.69;91.99
6128;BME280;7073;42.672;23.256;2022-10-19T01:11:11;94904.53;;;5.78;92.31
6128;BME280;7073;42.672;23.256;2022-10-19T01:14:05;94895.19;;;5.99;91.18
6128;BME280;7073;42.672;23.256;2022-10-19T01:16:45;94899.84;;;6.04;90.20
6128;BME280;7073;42.672;23.256;2022-10-19T01:19:33;94896.00;;;6.00;90.07
6128;BME280;7073;42.672;23.256;2022-10-19T01:22:13;94889.06;;;6.00;90.37
6128;BME280;7073;42.672;23.256;2022-10-19T01:24:56;94897.44;;;6.02;89.77
6128;BME280;7073;42.672;23.256;2022-10-19T01:27:43;94888.19;;;6.08;89.73
6128;BME280;7073;42.672;23.256;2022-10-19T01:30:26;94849.34;;;5.71;88.85
6128;BME280;7073;42.672;23.256;2022-10-19T01:33:12;94883.75;;;5.71;91.38
6128;BME280;7073;42.672;23.256;2022-10-19T01:35:48;94884.31;;;5.81;91.77
6128;BME280;7073;42.672;23.256;2022-10-19T01:38:24;94880.44;;;5.85;91.53
6128;BME280;7073;42.672;23.256;2022-10-19T01:40:56;94879.28;;;6.10;90.36
6128;BME280;7073;42.672;23.256;2022-10-19T01:43:32;94866.75;;;5.99;89.61
6128;BME280;7073;42.672;23.256;2022-10-19T01:49:14;94876.06;;;5.63;91.40
6128;BME280;7073;42.672;23.256;2022-10-19T01:51:45;94868.75;;;5.67;91.74
6128;BME280;7073;42.672;23.256;2022-10-19T01:54:14;94866.97;;;5.67;92.00
6128;BME280;7073;42.672;23.256;2022-10-19T01:56:45;94860.88;;;5.60;92.32
6128;BME280;7073;42.672;23.256;2022-10-19T02:02:17;94864.38;;;5.44;92.92
6128;BME280;7073;42.672;23.256;2022-10-19T02:04:44;94862.94;;;5.65;91.46
6128;BME280;7073;42.672;23.256;2022-10-19T02:07:12;94870.75;;;5.56;91.25
6128;BME280;7073;42.672;23.256;2022-10-19T02:09:39;94867.41;;;5.48;91.86
6128;BME280;7073;42.672;23.256;2022-10-19T02:12:09;94860.41;;;5.56;92.17
6128;BME280;7073;42.672;23.256;2022-10-19T02:14:43;94864.22;;;5.69;91.70
6128;BME280;7073;42.672;23.256;2022-10-19T02:17:13;94858.28;;;5.83;90.71
6128;BME280;7073;42.672;23.256;2022-10-19T02:19:42;94859.97;;;5.76;90.35
6128;BME280;7073;42.672;23.256;2022-10-19T02:22:10;94853.75;;;5.62;91.31
6128;BME280;7073;42.672;23.256;2022-10-19T02:24:37;94854.66;;;5.69;91.09
6128;BME280;7073;42.672;23.256;2022-10-19T02:27:06;94855.59;;;5.76;90.79
6128;BME280;7073;42.672;23.256;2022-10-19T02:29:35;94852.94;;;5.62;90.59
6128;BME280;7073;42.672;23.256;2022-10-19T02:32:13;94861.28;;;5.72;89.96
6128;BME280;7073;42.672;23.256;2022-10-19T02:38:42;94862.00;;;5.35;90.41
6128;BME280;7073;42.672;23.256;2022-10-19T02:41:13;94858.97;;;5.31;91.95
6128;BME280;7073;42.672;23.256;2022-10-19T02:43:43;94860.06;;;5.37;92.60
6128;BME280;7073;42.672;23.256;2022-10-19T02:46:16;94864.25;;;5.38;91.99
6128;BME280;7073;42.672;23.256;2022-10-19T02:48:45;94862.13;;;5.64;91.08
6128;BME280;7073;42.672;23.256;2022-10-19T02:51:30;94855.59;;;5.76;89.63
6128;BME280;7073;42.672;23.256;2022-10-19T02:53:59;94862.03;;;5.57;89.80
6128;BME280;7073;42.672;23.256;2022-10-19T03:02:24;94726.31;;;4.17;94.46
6128;BME280;7073;42.672;23.256;2022-10-19T03:04:52;94770.34;;;4.47;94.74
6128;BME280;7073;42.672;23.256;2022-10-19T03:07:20;94871.09;;;5.00;94.95
6128;BME280;7073;42.672;23.256;2022-10-19T03:09:49;94849.59;;;5.08;94.98
6128;BME280;7073;42.672;23.256;2022-10-19T03:12:16;94836.19;;;5.04;95.15
6128;BME280;7073;42.672;23.256;2022-10-19T03:14:43;94850.69;;;5.13;94.27
6128;BME280;7073;42.672;23.256;2022-10-19T03:17:10;94848.19;;;4.97;94.55
6128;BME280;7073;42.672;23.256;2022-10-19T03:19:37;94847.00;;;4.69;95.37
6128;BME280;7073;42.672;23.256;2022-10-19T03:22:04;94820.88;;;4.64;94.95
6128;BME280;7073;42.672;23.256;2022-10-19T03:24:31;94846.09;;;4.92;94.96
6128;BME280;7073;42.672;23.256;2022-10-19T03:26:59;94849.72;;;5.06;94.16
6128;BME280;7073;42.672;23.256;2022-10-19T03:29:27;94855.44;;;5.24;93.06
6128;BME280;7073;42.672;23.256;2022-10-19T03:31:54;94830.91;;;4.98;93.05
6128;BME280;7073;42.672;23.256;2022-10-19T03:34:21;94837.69;;;5.29;92.88
6128;BME280;7073;42.672;23.256;2022-10-19T03:36:48;94837.22;;;5.48;92.01
6128;BME280;7073;42.672;23.256;2022-10-19T03:39:15;94833.94;;;5.54;90.72
6128;BME280;7073;42.672;23.256;2022-10-19T03:41:42;94832.28;;;5.62;89.34
6128;BME280;7073;42.672;23.256;2022-10-19T03:44:10;94837.31;;;5.78;89.17
6128;BME280;7073;42.672;23.256;2022-10-19T03:46:38;94837.16;;;5.56;89.82
6128;BME280;7073;42.672;23.256;2022-10-19T03:49:05;94834.19;;;5.45;90.38
6128;BME280;7073;42.672;23.256;2022-10-19T03:51:33;94836.06;;;5.74;90.66
6128;BME280;7073;42.672;23.256;2022-10-19T03:54:02;94839.88;;;5.63;90.40
6128;BME280;7073;42.672;23.256;2022-10-19T03:56:30;94833.28;;;5.61;91.65
6128;BME280;7073;42.672;23.256;2022-10-19T03:58:59;94834.44;;;5.27;91.55
6128;BME280;7073;42.672;23.256;2022-10-19T04:01:30;94835.13;;;4.90;94.34
6128;BME280;7073;42.672;23.256;2022-10-19T04:03:58;94842.75;;;5.15;94.36
6128;BME280;7073;42.672;23.256;2022-10-19T04:06:29;94833.81;;;5.25;92.92
6128;BME280;7073;42.672;23.256;2022-10-19T04:08:56;94833.00;;;5.55;92.38
6128;BME280;7073;42.672;23.256;2022-10-19T04:11:25;94831.78;;;5.66;91.63
6128;BME280;7073;42.672;23.256;2022-10-19T04:13:58;94826.66;;;5.35;91.96
6128;BME280;7073;42.672;23.256;2022-10-19T04:16:28;94831.91;;;5.19;93.65
6128;BME280;7073;42.672;23.256;2022-10-19T04:19:31;94811.63;;;5.16;93.17
6128;BME280;7073;42.672;23.256;2022-10-19T04:21:58;94819.91;;;5.34;93.40
6128;BME280;7073;42.672;23.256;2022-10-19T04:24:31;94810.94;;;5.45;92.66
6128;BME280;7073;42.672;23.256;2022-10-19T04:26:57;94812.00;;;5.28;93.53
6128;BME280;7073;42.672;23.256;2022-10-19T04:29:25;94811.06;;;5.29;94.04
6128;BME280;7073;42.672;23.256;2022-10-19T04:31:53;94810.13;;;5.44;94.04
6128;BME280;7073;42.672;23.256;2022-10-19T04:34:20;94810.69;;;5.54;92.77
6128;BME280;7073;42.672;23.256;2022-10-19T04:36:47;94806.38;;;5.24;93.20
6128;BME280;7073;42.672;23.256;2022-10-19T04:39:13;94811.72;;;5.45;93.14
6128;BME280;7073;42.672;23.256;2022-10-19T04:41:40;94804.63;;;5.47;92.73
6128;BME280;7073;42.672;23.256;2022-10-19T04:44:08;94803.06;;;5.38;92.93
6128;BME280;7073;42.672;23.256;2022-10-19T04:46:35;94804.22;;;5.36;93.61
6128;BME280;7073;42.672;23.256;2022-10-19T04:49:04;94801.84;;;5.49;93.12
6128;BME280;7073;42.672;23.256;2022-10-19T04:51:31;94793.16;;;5.50;93.43
6128;BME280;7073;42.672;23.256;2022-10-19T04:53:58;94813.72;;;5.81;92.55
6128;BME280;7073;42.672;23.256;2022-10-19T04:56:25;94819.06;;;6.02;91.56
6128;BME280;7073;42.672;23.256;2022-10-19T04:58:54;94821.84;;;6.15;90.68
6128;BME280;7073;42.672;23.256;2022-10-19T05:01:22;94812.03;;;6.10;89.94
6128;BME280;7073;42.672;23.256;2022-10-19T05:03:52;94824.97;;;6.25;90.00
6128;BME280;7073;42.672;23.256;2022-10-19T05:06:22;94824.97;;;6.25;89.63
6128;BME280;7073;42.672;23.256;2022-10-19T05:08:49;94814.97;;;6.22;89.42
6128;BME280;7073;42.672;23.256;2022-10-19T05:11:17;94823.00;;;6.27;89.75
6128;BME280;7073;42.672;23.256;2022-10-19T05:13:45;94805.88;;;6.41;89.99
6128;BME280;7073;42.672;23.256;2022-10-19T05:16:14;94812.50;;;6.58;89.35
6128;BME280;7073;42.672;23.256;2022-10-19T05:18:41;94808.47;;;6.70;88.66
6128;BME280;7073;42.672;23.256;2022-10-19T05:21:10;94799.09;;;6.84;88.22
6128;BME280;7073;42.672;23.256;2022-10-19T05:23:39;94801.16;;;6.73;87.01
6128;BME280;7073;42.672;23.256;2022-10-19T05:26:08;94804.06;;;6.85;86.05
6128;BME280;7073;42.672;23.256;2022-10-19T05:28:36;94804.78;;;6.94;86.57
6128;BME280;7073;42.672;23.256;2022-10-19T05:31:07;94803.41;;;7.12;86.62
6128;BME280;7073;42.672;23.256;2022-10-19T05:33:35;94819.06;;;7.40;85.32
6128;BME280;7073;42.672;23.256;2022-10-19T05:36:13;94813.06;;;7.61;84.83
6128;BME280;7073;42.672;23.256;2022-10-19T05:38:42;94817.19;;;7.76;84.43
6128;BME280;7073;42.672;23.256;2022-10-19T05:41:09;94815.75;;;7.95;83.52
6128;BME280;7073;42.672;23.256;2022-10-19T05:43:36;94822.16;;;7.99;82.81
6128;BME280;7073;42.672;23.256;2022-10-19T05:46:04;94820.13;;;8.16;81.71
6128;BME280;7073;42.672;23.256;2022-10-19T05:48:32;94828.44;;;8.32;80.36
6128;BME280;7073;42.672;23.256;2022-10-19T05:50:59;94822.16;;;7.99;81.42
6128;BME280;7073;42.672;23.256;2022-10-19T05:53:27;94817.00;;;7.35;86.25
6128;BME280;7073;42.672;23.256;2022-10-19T05:55:56;94807.47;;;7.00;89.17
6128;BME280;7073;42.672;23.256;2022-10-19T05:58:23;94820.75;;;7.33;88.24
6128;BME280;7073;42.672;23.256;2022-10-19T06:00:51;94818.19;;;7.54;87.04
6128;BME280;7073;42.672;23.256;2022-10-19T06:03:18;94822.06;;;7.86;84.75
6128;BME280;7073;42.672;23.256;2022-10-19T06:05:44;94821.97;;;8.22;82.14
6128;BME280;7073;42.672;23.256;2022-10-19T06:08:11;94824.03;;;8.33;79.81
6128;BME280;7073;42.672;23.256;2022-10-19T06:10:38;94829.34;;;8.25;79.17
6128;BME280;7073;42.672;23.256;2022-10-19T06:13:06;94827.06;;;8.36;79.49
6128;BME280;7073;42.672;23.256;2022-10-19T06:15:33;94835.22;;;8.61;77.46
6128;BME280;7073;42.672;23.256;2022-10-19T06:18:02;94840.06;;;8.43;78.69
6128;BME280;7073;42.672;23.256;2022-10-19T06:20:29;94847.44;;;8.67;78.79
6128;BME280;7073;42.672;23.256;2022-10-19T06:22:56;94848.34;;;8.87;79.46
6128;BME280;7073;42.672;23.256;2022-10-19T06:25:23;94847.94;;;8.56;80.25
6128;BME280;7073;42.672;23.256;2022-10-19T06:27:50;94847.63;;;9.00;78.35
6128;BME280;7073;42.672;23.256;2022-10-19T06:30:18;94843.47;;;8.71;79.67
6128;BME280;7073;42.672;23.256;2022-10-19T06:32:45;94849.94;;;8.88;78.11
6128;BME280;7073;42.672;23.256;2022-10-19T06:35:12;94840.41;;;9.02;77.61
6128;BME280;7073;42.672;23.256;2022-10-19T06:37:40;94844.34;;;9.39;75.39
6128;BME280;7073;42.672;23.256;2022-10-19T06:40:08;94850.00;;;9.55;75.31
6128;BME280;7073;42.672;23.256;2022-10-19T06:42:35;94846.59;;;9.61;74.47
6128;BME280;7073;42.672;23.256;2022-10-19T06:45:05;94849.19;;;9.42;75.01
6128;BME280;7073;42.672;23.256;2022-10-19T06:47:34;94843.03;;;9.62;73.12
6128;BME280;7073;42.672;23.256;2022-10-19T06:50:02;94847.94;;;10.18;71.71
6128;BME280;7073;42.672;23.256;2022-10-19T06:52:30;94838.66;;;9.96;71.60
6128;BME280;7073;42.672;23.256;2022-10-19T06:54:56;94840.06;;;10.05;71.84
6128;BME280;7073;42.672;23.256;2022-10-19T06:57:23;94837.91;;;10.41;70.92
6128;BME280;7073;42.672;23.256;2022-10-19T06:59:50;94831.06;;;10.47;69.57
6128;BME280;7073;42.672;23.256;2022-10-19T07:02:17;94823.84;;;10.68;68.06
6128;BME280;7073;42.672;23.256;2022-10-19T07:04:45;94811.28;;;10.32;67.92
6128;BME280;7073;42.672;23.256;2022-10-19T07:07:12;94824.25;;;10.72;67.67
6128;BME280;7073;42.672;23.256;2022-10-19T07:09:38;94820.38;;;10.81;67.54
6128;BME280;7073;42.672;23.256;2022-10-19T07:12:05;94824.88;;;11.18;66.37
6128;BME280;7073;42.672;23.256;2022-10-19T07:14:32;94819.97;;;11.41;65.76
6128;BME280;7073;42.672;23.256;2022-10-19T07:17:03;94821.19;;;11.39;65.36
6128;BME280;7073;42.672;23.256;2022-10-19T07:19:30;94822.78;;;11.78;64.75
6128;BME280;7073;42.672;23.256;2022-10-19T07:21:59;94824.00;;;12.06;62.62
6128;BME280;7073;42.672;23.256;2022-10-19T07:24:26;94822.75;;;12.40;61.82
6128;BME280;7073;42.672;23.256;2022-10-19T07:26:52;94820.66;;;12.67;61.97
6128;BME280;7073;42.672;23.256;2022-10-19T07:29:19;94822.63;;;12.53;61.68
6128;BME280;7073;42.672;23.256;2022-10-19T07:31:46;94811.56;;;12.51;60.99
6128;BME280;7073;42.672;23.256;2022-10-19T07:34:13;94806.38;;;12.87;60.83
6128;BME280;7073;42.672;23.256;2022-10-19T07:36:43;94819.09;;;13.02;60.55
6128;BME280;7073;42.672;23.256;2022-10-19T07:39:14;94817.72;;;13.18;59.69
6128;BME280;7073;42.672;23.256;2022-10-19T07:41:42;94812.53;;;13.47;58.18
6128;BME280;7073;42.672;23.256;2022-10-19T07:44:09;94816.66;;;13.55;57.49
6128;BME280;7073;42.672;23.256;2022-10-19T07:46:37;94802.25;;;13.34;58.07
6128;BME280;7073;42.672;23.256;2022-10-19T07:49:06;94800.38;;;13.94;56.72
6128;BME280;7073;42.672;23.256;2022-10-19T07:51:34;94800.19;;;14.07;54.74
6128;BME280;7073;42.672;23.256;2022-10-19T07:54:01;94791.06;;;13.98;55.55
6128;BME280;7073;42.672;23.256;2022-10-19T07:56:30;94789.88;;;13.83;56.34
6128;BME280;7073;42.672;23.256;2022-10-19T07:58:58;94786.31;;;14.30;55.70
6128;BME280;7073;42.672;23.256;2022-10-19T08:01:26;94778.94;;;14.62;53.94
6128;BME280;7073;42.672;23.256;2022-10-19T08:03:54;94791.53;;;14.30;54.98
6128;BME280;7073;42.672;23.256;2022-10-19T08:06:22;94779.66;;;14.46;55.36
6128;BME280;7073;42.672;23.256;2022-10-19T08:08:50;94780.03;;;14.89;53.65
6128;BME280;7073;42.672;23.256;2022-10-19T08:11:19;94788.31;;;15.21;52.64
6128;BME280;7073;42.672;23.256;2022-10-19T08:13:48;94777.56;;;15.22;52.11
6128;BME280;7073;42.672;23.256;2022-10-19T08:16:26;94791.31;;;15.53;52.84
6128;BME280;7073;42.672;23.256;2022-10-19T08:18:57;94779.78;;;15.54;50.91
6128;BME280;7073;42.672;23.256;2022-10-19T08:21:24;94792.50;;;16.07;50.89
6128;BME280;7073;42.672;23.256;2022-10-19T08:23:51;94784.09;;;16.21;50.16
6128;BME280;7073;42.672;23.256;2022-10-19T08:26:17;94780.56;;;16.49;49.52
6128;BME280;7073;42.672;23.256;2022-10-19T08:28:44;94776.78;;;16.57;47.21
6128;BME280;7073;42.672;23.256;2022-10-19T08:31:14;94777.56;;;16.57;47.49
6128;BME280;7073;42.672;23.256;2022-10-19T08:33:42;94778.28;;;16.52;46.44
6128;BME280;7073;42.672;23.256;2022-10-19T08:36:10;94775.41;;;16.54;46.20
6128;BME280;7073;42.672;23.256;2022-10-19T08:38:37;94778.81;;;16.88;45.72
6128;BME280;7073;42.672;23.256;2022-10-19T08:41:14;94754.63;;;16.91;45.05
6128;BME280;7073;42.672;23.256;2022-10-19T08:43:54;94777.81;;;17.37;44.61
6128;BME280;7073;42.672;23.256;2022-10-19T08:46:32;94770.34;;;17.51;44.29
6128;BME280;7073;42.672;23.256;2022-10-19T08:49:01;94768.50;;;17.51;44.41
6128;BME280;7073;42.672;23.256;2022-10-19T08:51:33;94755.50;;;17.66;44.18
6128;BME280;7073;42.672;23.256;2022-10-19T08:54:04;94767.94;;;17.98;43.90
6128;BME280;7073;42.672;23.256;2022-10-19T08:56:40;94764.91;;;18.16;42.54
6128;BME280;7073;42.672;23.256;2022-10-19T08:59:13;94767.28;;;18.17;42.30
6128;BME280;7073;42.672;23.256;2022-10-19T09:01:46;94771.41;;;18.03;42.97
6128;BME280;7073;42.672;23.256;2022-10-19T09:04:20;94763.75;;;18.39;41.86
6128;BME280;7073;42.672;23.256;2022-10-19T09:06:58;94745.19;;;18.55;42.31
6128;BME280;7073;42.672;23.256;2022-10-19T09:09:29;94766.81;;;18.57;42.14
6128;BME280;7073;42.672;23.256;2022-10-19T09:12:02;94761.63;;;18.67;41.90
6128;BME280;7073;42.672;23.256;2022-10-19T09:14:31;94755.06;;;18.75;41.84
6128;BME280;7073;42.672;23.256;2022-10-19T09:17:04;94753.59;;;18.52;42.10
6128;BME280;7073;42.672;23.256;2022-10-19T09:19:35;94749.84;;;18.43;41.66
6128;BME280;7073;42.672;23.256;2022-10-19T09:22:04;94760.81;;;18.62;40.90
6128;BME280;7073;42.672;23.256;2022-10-19T09:24:40;94760.06;;;18.71;40.74
6128;BME280;7073;42.672;23.256;2022-10-19T09:27:14;94754.91;;;18.97;40.75
6128;BME280;7073;42.672;23.256;2022-10-19T09:29:44;94764.47;;;19.08;39.33
6128;BME280;7073;42.672;23.256;2022-10-19T09:32:19;94765.13;;;19.35;39.39
6128;BME280;7073;42.672;23.256;2022-10-19T09:34:50;94764.16;;;19.46;38.61
6128;BME280;7073;42.672;23.256;2022-10-19T09:37:17;94760.00;;;19.80;38.76
6128;BME280;7073;42.672;23.256;2022-10-19T09:39:45;94759.00;;;20.57;37.87
6128;BME280;7073;42.672;23.256;2022-10-19T09:42:16;94758.47;;;20.25;37.11
6128;BME280;7073;42.672;23.256;2022-10-19T09:44:46;94766.38;;;20.55;37.16
6128;BME280;7073;42.672;23.256;2022-10-19T09:47:33;94763.97;;;20.94;37.10
6128;BME280;7073;42.672;23.256;2022-10-19T09:50:22;94760.31;;;21.54;35.70
6128;BME280;7073;42.672;23.256;2022-10-19T09:52:50;94761.81;;;21.01;35.68
6128;BME280;7073;42.672;23.256;2022-10-19T09:55:27;94747.06;;;20.64;36.67
6128;BME280;7073;42.672;23.256;2022-10-19T09:58:03;94750.16;;;21.02;36.37
6128;BME280;7073;42.672;23.256;2022-10-19T10:00:34;94751.81;;;20.72;36.34
6128;BME280;7073;42.672;23.256;2022-10-19T10:03:03;94752.25;;;21.10;35.76
6128;BME280;7073;42.672;23.256;2022-10-19T10:05:34;94749.88;;;21.13;35.04
6128;BME280;7073;42.672;23.256;2022-10-19T10:08:03;94741.16;;;20.93;35.63
6128;BME280;7073;42.672;23.256;2022-10-19T10:10:36;94746.59;;;21.37;34.66
6128;BME280;7073;42.672;23.256;2022-10-19T10:13:04;94744.50;;;21.28;34.35
6128;BME280;7073;42.672;23.256;2022-10-19T10:15:39;94738.41;;;21.77;34.63
6128;BME280;7073;42.672;23.256;2022-10-19T10:18:11;94727.47;;;21.45;34.39
6128;BME280;7073;42.672;23.256;2022-10-19T10:20:55;94731.47;;;21.91;33.14
6128;BME280;7073;42.672;23.256;2022-10-19T10:23:24;94715.63;;;21.27;32.88
6128;BME280;7073;42.672;23.256;2022-10-19T10:25:54;94720.13;;;21.26;32.51
6128;BME280;7073;42.672;23.256;2022-10-19T10:28:22;94715.75;;;20.87;32.53
6128;BME280;7073;42.672;23.256;2022-10-19T10:30:53;94709.00;;;21.24;32.50
6128;BME280;7073;42.672;23.256;2022-10-19T10:33:25;94699.00;;;21.01;33.30
6128;BME280;7073;42.672;23.256;2022-10-19T10:35:54;94694.00;;;21.54;32.48
6128;BME280;7073;42.672;23.256;2022-10-19T10:38:24;94692.66;;;21.07;32.23
6128;BME280;7073;42.672;23.256;2022-10-19T10:40:54;94692.56;;;21.27;32.81
6128;BME280;7073;42.672;23.256;2022-10-19T10:43:26;94686.63;;;21.89;32.28
6128;BME280;7073;42.672;23.256;2022-10-19T10:45:59;94662.25;;;21.82;31.57
6128;BME280;7073;42.672;23.256;2022-10-19T10:48:30;94683.25;;;21.74;31.37
6128;BME280;7073;42.672;23.256;2022-10-19T10:50:59;94681.88;;;22.20;31.09
6128;BME280;7073;42.672;23.256;2022-10-19T10:53:37;94660.00;;;22.33;29.63
6128;BME280;7073;42.672;23.256;2022-10-19T10:56:18;94674.44;;;21.88;30.53
6128;BME280;7073;42.672;23.256;2022-10-19T10:58:50;94669.75;;;22.38;29.37
6128;BME280;7073;42.672;23.256;2022-10-19T11:01:21;94667.56;;;22.16;30.15
6128;BME280;7073;42.672;23.256;2022-10-19T11:03:55;94659.44;;;22.03;29.79
6128;BME280;7073;42.672;23.256;2022-10-19T11:06:25;94652.34;;;22.27;29.59
6128;BME280;7073;42.672;23.256;2022-10-19T11:08:58;94653.22;;;22.46;29.43
6128;BME280;7073;42.672;23.256;2022-10-19T11:11:29;94663.81;;;22.98;28.93
6128;BME280;7073;42.672;23.256;2022-10-19T11:14:21;94650.69;;;22.60;29.26
6128;BME280;7073;42.672;23.256;2022-10-19T11:16:52;94636.53;;;22.69;29.15
6128;BME280;7073;42.672;23.256;2022-10-19T11:19:24;94641.13;;;23.06;28.62
6128;BME280;7073;42.672;23.256;2022-10-19T11:21:56;94639.47;;;23.10;27.95
6128;BME280;7073;42.672;23.256;2022-10-19T11:24:37;94639.91;;;22.98;27.55
6128;BME280;7073;42.672;23.256;2022-10-19T11:27:19;94633.41;;;23.28;27.94
6128;BME280;7073;42.672;23.256;2022-10-19T11:30:00;94635.94;;;22.96;27.22
6128;BME280;7073;42.672;23.256;2022-10-19T11:32:34;94626.13;;;22.73;27.81
6128;BME280;7073;42.672;23.256;2022-10-19T11:35:17;94632.75;;;22.75;27.23
6128;BME280;7073;42.672;23.256;2022-10-19T11:37:53;94618.84;;;23.21;26.90
6128;BME280;7073;42.672;23.256;2022-10-19T11:40:29;94619.56;;;23.26;26.96
6128;BME280;7073;42.672;23.256;2022-10-19T11:43:02;94615.47;;;23.34;27.23
6128;BME280;7073;42.672;23.256;2022-10-19T11:45:39;94617.97;;;23.81;27.38
6128;BME280;7073;42.672;23.256;2022-10-19T11:48:34;94618.22;;;23.66;27.06
6128;BME280;7073;42.672;23.256;2022-10-19T11:51:10;94600.06;;;23.54;27.33
6128;BME280;7073;42.672;23.256;2022-10-19T11:53:52;94598.63;;;23.43;27.82
6128;BME280;7073;42.672;23.256;2022-10-19T11:56:28;94592.81;;;23.41;27.34
6128;BME280;7073;42.672;23.256;2022-10-19T11:59:01;94585.59;;;23.60;28.31
6128;BME280;7073;42.672;23.256;2022-10-19T12:01:40;94583.28;;;23.72;27.18
6128;BME280;7073;42.672;23.256;2022-10-19T12:04:25;94583.53;;;23.71;27.00
6128;BME280;7073;42.672;23.256;2022-10-19T12:07:04;94588.94;;;24.17;26.36
6128;BME280;7073;42.672;23.256;2022-10-19T12:09:48;94587.16;;;24.53;26.46
6128;BME280;7073;42.672;23.256;2022-10-19T12:12:27;94582.34;;;24.28;26.40
6128;BME280;7073;42.672;23.256;2022-10-19T12:15:02;94587.94;;;24.26;25.82
6128;BME280;7073;42.672;23.256;2022-10-19T12:17:33;94593.88;;;24.05;25.80
6128;BME280;7073;42.672;23.256;2022-10-19T12:20:04;94594.19;;;24.49;25.80
6128;BME280;7073;42.672;23.256;2022-10-19T12:22:35;94585.41;;;24.35;26.30
6128;BME280;7073;42.672;23.256;2022-10-19T12:25:03;94594.66;;;24.24;26.86
6128;BME280;7073;42.672;23.256;2022-10-19T12:27:33;94587.47;;;24.52;26.99
6128;BME280;7073;42.672;23.256;2022-10-19T12:30:04;94577.72;;;23.69;27.09
6128;BME280;7073;42.672;23.256;2022-10-19T12:32:38;94580.28;;;23.42;27.76
6128;BME280;7073;42.672;23.256;2022-10-19T12:35:19;94570.38;;;24.12;27.30
6128;BME280;7073;42.672;23.256;2022-10-19T12:37:53;94574.94;;;23.93;27.10
6128;BME280;7073;42.672;23.256;2022-10-19T12:40:27;94575.03;;;24.33;26.35
6128;BME280;7073;42.672;23.256;2022-10-19T12:43:01;94561.47;;;23.38;27.69
6128;BME280;7073;42.672;23.256;2022-10-19T12:45:30;94566.16;;;23.92;27.62
6128;BME280;7073;42.672;23.256;2022-10-19T12:48:16;94555.81;;;23.91;28.45
6128;BME280;7073;42.672;23.256;2022-10-19T12:51:13;94560.53;;;23.80;27.93
6128;BME280;7073;42.672;23.256;2022-10-19T12:53:44;94562.53;;;24.02;27.96
6128;BME280;7073;42.672;23.256;2022-10-19T12:56:17;94574.81;;;24.71;27.45
6128;BME280;7073;42.672;23.256;2022-10-19T12:58:49;94563.38;;;24.16;27.55
6128;BME280;7073;42.672;23.256;2022-10-19T13:01:20;94561.50;;;23.84;28.63
6128;BME280;7073;42.672;23.256;2022-10-19T13:03:51;94567.78;;;24.07;28.59
6128;BME280;7073;42.672;23.256;2022-10-19T13:06:30;94561.09;;;24.09;28.33
6128;BME280;7073;42.672;23.256;2022-10-19T13:09:02;94558.47;;;23.91;29.46
6128;BME280;7073;42.672;23.256;2022-10-19T13:11:30;94559.84;;;24.61;29.28
6128;BME280;7073;42.672;23.256;2022-10-19T13:14:02;94551.53;;;24.90;28.61
6128;BME280;7073;42.672;23.256;2022-10-19T13:17:00;94538.53;;;24.34;29.47
6128;BME280;7073;42.672;23.256;2022-10-19T13:19:27;94550.47;;;24.50;29.41
6128;BME280;7073;42.672;23.256;2022-10-19T13:25:21;94553.31;;;24.67;28.84
6128;BME280;7073;42.672;23.256;2022-10-19T13:27:52;94556.47;;;24.69;28.38
6128;BME280;7073;42.672;23.256;2022-10-19T13:30:57;94556.00;;;24.40;28.98
6128;BME280;7073;42.672;23.256;2022-10-19T13:33:48;94554.88;;;24.68;28.92
6128;BME280;7073;42.672;23.256;2022-10-19T13:36:16;94550.81;;;24.98;28.45
6128;BME280;7073;42.672;23.256;2022-10-19T13:38:45;94557.47;;;24.32;29.18
6128;BME280;7073;42.672;23.256;2022-10-19T13:41:18;94552.91;;;24.60;28.59
6128;BME280;7073;42.672;23.256;2022-10-19T13:43:54;94542.28;;;24.33;29.25
6128;BME280;7073;42.672;23.256;2022-10-19T13:46:37;94551.03;;;24.61;29.38
6128;BME280;7073;42.672;23.256;2022-10-19T13:49:33;94546.41;;;24.93;28.62
6128;BME280;7073;42.672;23.256;2022-10-19T13:52:17;94530.03;;;24.73;28.76
6128;BME280;7073;42.672;23.256;2022-10-19T13:55:00;94523.63;;;24.47;28.99
6128;BME280;7073;42.672;23.256;2022-10-19T13:57:44;94533.28;;;24.29;28.64
6128;BME280;7073;42.672;23.256;2022-10-19T14:00:17;94528.75;;;24.16;28.60
6128;BME280;7073;42.672;23.256;2022-10-19T14:03:11;94528.16;;;24.32;28.88